Naval Air Station/JRB, Texas
Current Conditions -  °F | °C
As of 6:52 PM on Tuesday 27 Jan 2015 (Local Time) from KNFW Reporting Station
Clear Clear  
Wind Chill: 70°   Ceiling: Unl
Heat Index: 70°   Visibility: 10mi
Dew Point: 37°   Wind: 5mph
Humidity: 30%   Direction: 180°S
Pressure: 30.14"   Gusts: NA
Location:  32.7796°N, 97.4234°W
Report Text: KNFW 280052Z 18004KT 10SM CLR 21/03 A3014 RMK AO2 SLP189 T02110028 $
Loading
Personal Weather Stations






























Interactive Weather Map New forecast layout! Learn more

10-Day Weather Forecast

Advertisements
Track Severe Weather on mobile